sensor_id;sensor_type;location;lat;lon;timestamp;P1;durP1;ratioP1;P2;durP2;ratioP2
12631;SDS011;6381;45.748;12.106;2023-08-20T00:01:41;10.43;;;9.52;;
12631;SDS011;6381;45.748;12.106;2023-08-20T00:04:12;10.48;;;9.48;;
12631;SDS011;6381;45.748;12.106;2023-08-20T00:06:43;10.30;;;9.50;;
12631;SDS011;6381;45.748;12.106;2023-08-20T00:09:13;10.95;;;10.05;;
12631;SDS011;6381;45.748;12.106;2023-08-20T00:11:42;10.13;;;9.23;;
12631;SDS011;6381;45.748;12.106;2023-08-20T00:14:14;10.40;;;9.40;;
12631;SDS011;6381;45.748;12.106;2023-08-20T00:16:45;12.55;;;11.45;;
12631;SDS011;6381;45.748;12.106;2023-08-20T00:19:17;13.38;;;12.07;;
12631;SDS011;6381;45.748;12.106;2023-08-20T00:21:46;17.88;;;16.40;;
12631;SDS011;6381;45.748;12.106;2023-08-20T00:24:16;15.90;;;14.50;;
12631;SDS011;6381;45.748;12.106;2023-08-20T00:26:46;17.50;;;15.88;;
12631;SDS011;6381;45.748;12.106;2023-08-20T00:29:15;17.58;;;15.98;;
12631;SDS011;6381;45.748;12.106;2023-08-20T00:31:46;17.65;;;16.15;;
12631;SDS011;6381;45.748;12.106;2023-08-20T00:34:17;17.50;;;15.75;;
12631;SDS011;6381;45.748;12.106;2023-08-20T00:36:46;16.45;;;15.00;;
12631;SDS011;6381;45.748;12.106;2023-08-20T00:39:16;15.93;;;14.52;;
12631;SDS011;6381;45.748;12.106;2023-08-20T00:41:46;15.27;;;13.85;;
12631;SDS011;6381;45.748;12.106;2023-08-20T00:44:15;16.90;;;15.30;;
12631;SDS011;6381;45.748;12.106;2023-08-20T00:46:44;15.95;;;14.65;;
12631;SDS011;6381;45.748;12.106;2023-08-20T00:49:14;14.68;;;13.48;;
12631;SDS011;6381;45.748;12.106;2023-08-20T00:51:44;15.93;;;14.63;;
12631;SDS011;6381;45.748;12.106;2023-08-20T00:54:14;15.27;;;13.77;;
12631;SDS011;6381;45.748;12.106;2023-08-20T00:56:43;15.05;;;13.55;;
12631;SDS011;6381;45.748;12.106;2023-08-20T00:59:14;14.90;;;13.48;;
12631;SDS011;6381;45.748;12.106;2023-08-20T01:01:43;16.20;;;14.50;;
12631;SDS011;6381;45.748;12.106;2023-08-20T01:04:13;16.13;;;14.50;;
12631;SDS011;6381;45.748;12.106;2023-08-20T01:06:46;14.73;;;13.45;;
12631;SDS011;6381;45.748;12.106;2023-08-20T01:09:25;14.57;;;13.07;;
12631;SDS011;6381;45.748;12.106;2023-08-20T01:11:59;14.65;;;13.18;;
12631;SDS011;6381;45.748;12.106;2023-08-20T01:14:33;15.25;;;14.05;;
12631;SDS011;6381;45.748;12.106;2023-08-20T01:17:03;14.85;;;13.30;;
12631;SDS011;6381;45.748;12.106;2023-08-20T01:19:32;14.30;;;12.90;;
12631;SDS011;6381;45.748;12.106;2023-08-20T01:22:11;14.48;;;13.20;;
12631;SDS011;6381;45.748;12.106;2023-08-20T01:24:54;14.85;;;13.13;;
12631;SDS011;6381;45.748;12.106;2023-08-20T01:27:38;13.93;;;12.70;;
12631;SDS011;6381;45.748;12.106;2023-08-20T01:30:15;13.13;;;11.98;;
12631;SDS011;6381;45.748;12.106;2023-08-20T01:32:44;12.48;;;11.38;;
12631;SDS011;6381;45.748;12.106;2023-08-20T01:35:15;13.32;;;11.80;;
12631;SDS011;6381;45.748;12.106;2023-08-20T01:37:45;11.60;;;10.57;;
12631;SDS011;6381;45.748;12.106;2023-08-20T01:40:14;12.85;;;11.70;;
12631;SDS011;6381;45.748;12.106;2023-08-20T01:42:43;12.35;;;11.27;;
12631;SDS011;6381;45.748;12.106;2023-08-20T01:45:14;12.20;;;11.10;;
12631;SDS011;6381;45.748;12.106;2023-08-20T01:47:47;12.20;;;11.23;;
12631;SDS011;6381;45.748;12.106;2023-08-20T01:50:16;12.25;;;11.07;;
12631;SDS011;6381;45.748;12.106;2023-08-20T01:52:46;11.38;;;10.30;;
12631;SDS011;6381;45.748;12.106;2023-08-20T01:55:15;11.45;;;10.50;;
12631;SDS011;6381;45.748;12.106;2023-08-20T01:57:45;11.73;;;10.65;;
12631;SDS011;6381;45.748;12.106;2023-08-20T02:00:16;12.40;;;11.20;;
12631;SDS011;6381;45.748;12.106;2023-08-20T02:02:45;11.57;;;10.45;;
12631;SDS011;6381;45.748;12.106;2023-08-20T02:05:14;13.00;;;11.70;;
12631;SDS011;6381;45.748;12.106;2023-08-20T02:07:44;12.75;;;11.60;;
12631;SDS011;6381;45.748;12.106;2023-08-20T02:10:13;12.23;;;11.15;;
12631;SDS011;6381;45.748;12.106;2023-08-20T02:12:43;11.45;;;10.55;;
12631;SDS011;6381;45.748;12.106;2023-08-20T02:15:12;11.50;;;10.45;;
12631;SDS011;6381;45.748;12.106;2023-08-20T02:17:43;12.43;;;11.30;;
12631;SDS011;6381;45.748;12.106;2023-08-20T02:20:14;12.02;;;11.02;;
12631;SDS011;6381;45.748;12.106;2023-08-20T02:22:43;12.60;;;11.40;;
12631;SDS011;6381;45.748;12.106;2023-08-20T02:25:14;12.10;;;10.85;;
12631;SDS011;6381;45.748;12.106;2023-08-20T02:27:44;12.35;;;11.20;;
12631;SDS011;6381;45.748;12.106;2023-08-20T02:30:13;12.68;;;11.57;;
12631;SDS011;6381;45.748;12.106;2023-08-20T02:32:44;12.65;;;11.52;;
12631;SDS011;6381;45.748;12.106;2023-08-20T02:35:14;12.00;;;10.95;;
12631;SDS011;6381;45.748;12.106;2023-08-20T02:37:44;11.27;;;10.27;;
12631;SDS011;6381;45.748;12.106;2023-08-20T02:40:13;11.60;;;10.60;;
12631;SDS011;6381;45.748;12.106;2023-08-20T02:42:42;12.32;;;11.20;;
12631;SDS011;6381;45.748;12.106;2023-08-20T02:45:12;11.90;;;11.00;;
12631;SDS011;6381;45.748;12.106;2023-08-20T02:47:41;12.15;;;11.07;;
12631;SDS011;6381;45.748;12.106;2023-08-20T02:50:12;13.35;;;12.15;;
12631;SDS011;6381;45.748;12.106;2023-08-20T02:52:41;11.75;;;10.85;;
12631;SDS011;6381;45.748;12.106;2023-08-20T02:55:11;12.30;;;11.10;;
12631;SDS011;6381;45.748;12.106;2023-08-20T02:57:40;13.00;;;11.80;;
12631;SDS011;6381;45.748;12.106;2023-08-20T03:00:10;12.57;;;11.57;;
12631;SDS011;6381;45.748;12.106;2023-08-20T03:02:41;12.35;;;11.18;;
12631;SDS011;6381;45.748;12.106;2023-08-20T03:05:12;11.95;;;10.75;;
12631;SDS011;6381;45.748;12.106;2023-08-20T03:07:42;12.55;;;11.25;;
12631;SDS011;6381;45.748;12.106;2023-08-20T03:10:11;13.15;;;11.88;;
12631;SDS011;6381;45.748;12.106;2023-08-20T03:12:40;12.50;;;11.40;;
12631;SDS011;6381;45.748;12.106;2023-08-20T03:15:10;12.57;;;11.50;;
12631;SDS011;6381;45.748;12.106;2023-08-20T03:17:39;12.95;;;11.70;;
12631;SDS011;6381;45.748;12.106;2023-08-20T03:20:09;12.57;;;11.43;;
12631;SDS011;6381;45.748;12.106;2023-08-20T03:22:40;12.57;;;11.43;;
12631;SDS011;6381;45.748;12.106;2023-08-20T03:25:10;13.15;;;12.02;;
12631;SDS011;6381;45.748;12.106;2023-08-20T03:27:39;13.32;;;12.23;;
12631;SDS011;6381;45.748;12.106;2023-08-20T03:30:10;12.90;;;11.77;;
12631;SDS011;6381;45.748;12.106;2023-08-20T03:32:42;13.88;;;12.52;;
12631;SDS011;6381;45.748;12.106;2023-08-20T03:35:12;13.45;;;12.25;;
12631;SDS011;6381;45.748;12.106;2023-08-20T03:37:43;13.35;;;12.15;;
12631;SDS011;6381;45.748;12.106;2023-08-20T03:40:12;12.60;;;11.23;;
12631;SDS011;6381;45.748;12.106;2023-08-20T03:42:41;13.30;;;12.00;;
12631;SDS011;6381;45.748;12.106;2023-08-20T03:45:11;13.00;;;11.90;;
12631;SDS011;6381;45.748;12.106;2023-08-20T03:47:41;13.55;;;11.77;;
12631;SDS011;6381;45.748;12.106;2023-08-20T03:50:11;12.93;;;11.82;;
12631;SDS011;6381;45.748;12.106;2023-08-20T03:52:40;13.23;;;12.02;;
12631;SDS011;6381;45.748;12.106;2023-08-20T03:55:12;13.73;;;12.32;;
12631;SDS011;6381;45.748;12.106;2023-08-20T03:57:42;12.75;;;11.65;;
12631;SDS011;6381;45.748;12.106;2023-08-20T04:00:11;12.82;;;11.70;;
12631;SDS011;6381;45.748;12.106;2023-08-20T04:02:41;12.65;;;11.60;;
12631;SDS011;6381;45.748;12.106;2023-08-20T04:05:10;13.48;;;12.32;;
12631;SDS011;6381;45.748;12.106;2023-08-20T04:07:40;12.98;;;11.88;;
12631;SDS011;6381;45.748;12.106;2023-08-20T04:10:10;13.75;;;12.55;;
12631;SDS011;6381;45.748;12.106;2023-08-20T04:12:40;12.40;;;11.30;;
12631;SDS011;6381;45.748;12.106;2023-08-20T04:15:09;13.68;;;12.40;;
12631;SDS011;6381;45.748;12.106;2023-08-20T04:17:40;13.38;;;12.18;;
12631;SDS011;6381;45.748;12.106;2023-08-20T04:20:09;13.15;;;11.95;;
12631;SDS011;6381;45.748;12.106;2023-08-20T04:22:38;12.65;;;11.65;;
12631;SDS011;6381;45.748;12.106;2023-08-20T04:25:08;14.10;;;12.70;;
12631;SDS011;6381;45.748;12.106;2023-08-20T04:27:40;13.48;;;12.38;;
12631;SDS011;6381;45.748;12.106;2023-08-20T04:30:09;12.88;;;11.68;;
12631;SDS011;6381;45.748;12.106;2023-08-20T04:32:39;13.70;;;12.43;;
12631;SDS011;6381;45.748;12.106;2023-08-20T04:35:09;12.93;;;11.73;;
12631;SDS011;6381;45.748;12.106;2023-08-20T04:37:39;13.40;;;12.20;;
12631;SDS011;6381;45.748;12.106;2023-08-20T04:40:11;13.20;;;12.10;;
12631;SDS011;6381;45.748;12.106;2023-08-20T04:42:44;13.07;;;11.82;;
12631;SDS011;6381;45.748;12.106;2023-08-20T04:45:14;12.82;;;11.77;;
12631;SDS011;6381;45.748;12.106;2023-08-20T04:47:47;13.05;;;11.95;;
12631;SDS011;6381;45.748;12.106;2023-08-20T04:50:16;12.57;;;11.50;;
12631;SDS011;6381;45.748;12.106;2023-08-20T04:52:48;12.02;;;11.02;;
12631;SDS011;6381;45.748;12.106;2023-08-20T04:55:19;12.05;;;11.05;;
12631;SDS011;6381;45.748;12.106;2023-08-20T04:57:49;12.65;;;11.38;;
12631;SDS011;6381;45.748;12.106;2023-08-20T05:00:18;13.10;;;11.93;;
12631;SDS011;6381;45.748;12.106;2023-08-20T05:03:03;11.90;;;10.75;;
12631;SDS011;6381;45.748;12.106;2023-08-20T05:05:33;12.65;;;11.55;;
12631;SDS011;6381;45.748;12.106;2023-08-20T05:08:02;12.70;;;11.57;;
12631;SDS011;6381;45.748;12.106;2023-08-20T05:10:34;12.38;;;11.27;;
12631;SDS011;6381;45.748;12.106;2023-08-20T05:13:04;12.18;;;11.07;;
12631;SDS011;6381;45.748;12.106;2023-08-20T05:15:33;12.68;;;11.48;;
12631;SDS011;6381;45.748;12.106;2023-08-20T05:18:03;12.25;;;11.15;;
12631;SDS011;6381;45.748;12.106;2023-08-20T05:20:34;12.60;;;11.57;;
12631;SDS011;6381;45.748;12.106;2023-08-20T05:23:03;12.30;;;11.30;;
12631;SDS011;6381;45.748;12.106;2023-08-20T05:25:34;11.85;;;10.82;;
12631;SDS011;6381;45.748;12.106;2023-08-20T05:28:03;12.13;;;11.13;;
12631;SDS011;6381;45.748;12.106;2023-08-20T05:30:33;12.18;;;11.18;;
12631;SDS011;6381;45.748;12.106;2023-08-20T05:33:03;12.38;;;11.27;;
12631;SDS011;6381;45.748;12.106;2023-08-20T05:35:36;12.05;;;11.05;;
12631;SDS011;6381;45.748;12.106;2023-08-20T05:38:06;13.05;;;11.88;;
12631;SDS011;6381;45.748;12.106;2023-08-20T05:40:37;11.80;;;10.70;;
12631;SDS011;6381;45.748;12.106;2023-08-20T05:43:06;11.60;;;10.60;;
12631;SDS011;6381;45.748;12.106;2023-08-20T05:45:36;11.70;;;10.70;;
12631;SDS011;6381;45.748;12.106;2023-08-20T05:48:08;12.45;;;11.45;;
12631;SDS011;6381;45.748;12.106;2023-08-20T05:50:37;12.25;;;11.20;;
12631;SDS011;6381;45.748;12.106;2023-08-20T05:53:06;12.68;;;11.55;;
12631;SDS011;6381;45.748;12.106;2023-08-20T05:55:37;11.77;;;10.68;;
12631;SDS011;6381;45.748;12.106;2023-08-20T05:58:07;12.50;;;11.38;;
12631;SDS011;6381;45.748;12.106;2023-08-20T06:00:37;12.50;;;11.30;;
12631;SDS011;6381;45.748;12.106;2023-08-20T06:03:06;12.55;;;11.35;;
12631;SDS011;6381;45.748;12.106;2023-08-20T06:05:36;12.32;;;11.25;;
12631;SDS011;6381;45.748;12.106;2023-08-20T06:08:05;12.30;;;11.00;;
12631;SDS011;6381;45.748;12.106;2023-08-20T06:10:34;12.10;;;11.15;;
12631;SDS011;6381;45.748;12.106;2023-08-20T06:13:05;11.88;;;10.70;;
12631;SDS011;6381;45.748;12.106;2023-08-20T06:15:34;12.05;;;11.07;;
12631;SDS011;6381;45.748;12.106;2023-08-20T06:18:04;11.93;;;10.93;;
12631;SDS011;6381;45.748;12.106;2023-08-20T06:20:34;11.75;;;10.85;;
12631;SDS011;6381;45.748;12.106;2023-08-20T06:23:03;11.05;;;10.13;;
12631;SDS011;6381;45.748;12.106;2023-08-20T06:25:32;11.88;;;10.88;;
12631;SDS011;6381;45.748;12.106;2023-08-20T06:28:05;13.63;;;12.32;;
12631;SDS011;6381;45.748;12.106;2023-08-20T06:30:36;11.63;;;10.73;;
12631;SDS011;6381;45.748;12.106;2023-08-20T06:33:07;12.88;;;11.73;;
12631;SDS011;6381;45.748;12.106;2023-08-20T06:35:42;11.95;;;10.88;;
12631;SDS011;6381;45.748;12.106;2023-08-20T06:38:13;11.98;;;10.88;;
12631;SDS011;6381;45.748;12.106;2023-08-20T06:40:55;11.88;;;10.68;;
12631;SDS011;6381;45.748;12.106;2023-08-20T06:43:26;11.70;;;10.68;;
12631;SDS011;6381;45.748;12.106;2023-08-20T06:45:57;11.75;;;10.55;;
12631;SDS011;6381;45.748;12.106;2023-08-20T06:48:38;11.90;;;10.77;;
12631;SDS011;6381;45.748;12.106;2023-08-20T06:51:07;12.52;;;11.20;;
12631;SDS011;6381;45.748;12.106;2023-08-20T06:53:40;12.32;;;11.13;;
12631;SDS011;6381;45.748;12.106;2023-08-20T06:56:09;12.50;;;11.25;;
12631;SDS011;6381;45.748;12.106;2023-08-20T06:58:43;11.90;;;10.85;;
12631;SDS011;6381;45.748;12.106;2023-08-20T07:01:17;11.80;;;10.70;;
12631;SDS011;6381;45.748;12.106;2023-08-20T07:03:53;12.13;;;11.02;;
12631;SDS011;6381;45.748;12.106;2023-08-20T07:06:26;11.93;;;10.90;;
12631;SDS011;6381;45.748;12.106;2023-08-20T07:08:57;12.65;;;11.40;;
12631;SDS011;6381;45.748;12.106;2023-08-20T07:11:35;12.38;;;11.23;;
12631;SDS011;6381;45.748;12.106;2023-08-20T07:14:20;11.85;;;10.85;;
12631;SDS011;6381;45.748;12.106;2023-08-20T07:16:55;11.82;;;10.82;;
12631;SDS011;6381;45.748;12.106;2023-08-20T07:19:41;12.55;;;11.45;;
12631;SDS011;6381;45.748;12.106;2023-08-20T07:22:11;11.88;;;10.73;;
12631;SDS011;6381;45.748;12.106;2023-08-20T07:24:41;12.50;;;11.40;;
12631;SDS011;6381;45.748;12.106;2023-08-20T07:27:10;13.20;;;11.55;;
12631;SDS011;6381;45.748;12.106;2023-08-20T07:29:41;12.20;;;11.20;;
12631;SDS011;6381;45.748;12.106;2023-08-20T07:32:10;11.73;;;10.68;;
12631;SDS011;6381;45.748;12.106;2023-08-20T07:34:40;12.27;;;10.95;;
12631;SDS011;6381;45.748;12.106;2023-08-20T07:37:09;11.50;;;10.60;;
12631;SDS011;6381;45.748;12.106;2023-08-20T07:39:38;11.82;;;10.82;;
12631;SDS011;6381;45.748;12.106;2023-08-20T07:42:08;12.65;;;11.35;;
12631;SDS011;6381;45.748;12.106;2023-08-20T07:44:37;12.98;;;11.10;;
12631;SDS011;6381;45.748;12.106;2023-08-20T07:47:08;12.50;;;11.40;;
12631;SDS011;6381;45.748;12.106;2023-08-20T07:49:37;11.95;;;10.77;;
12631;SDS011;6381;45.748;12.106;2023-08-20T07:52:07;11.55;;;10.55;;
12631;SDS011;6381;45.748;12.106;2023-08-20T07:54:36;12.15;;;11.15;;
12631;SDS011;6381;45.748;12.106;2023-08-20T07:57:06;11.82;;;10.82;;
12631;SDS011;6381;45.748;12.106;2023-08-20T07:59:35;12.65;;;11.50;;
12631;SDS011;6381;45.748;12.106;2023-08-20T08:02:04;11.73;;;10.50;;
12631;SDS011;6381;45.748;12.106;2023-08-20T08:04:35;12.80;;;11.70;;
12631;SDS011;6381;45.748;12.106;2023-08-20T08:07:05;12.23;;;11.23;;
12631;SDS011;6381;45.748;12.106;2023-08-20T08:09:34;12.25;;;11.20;;
12631;SDS011;6381;45.748;12.106;2023-08-20T08:12:04;11.75;;;10.73;;
12631;SDS011;6381;45.748;12.106;2023-08-20T08:14:33;12.32;;;11.15;;
12631;SDS011;6381;45.748;12.106;2023-08-20T08:17:04;11.32;;;10.32;;
12631;SDS011;6381;45.748;12.106;2023-08-20T08:19:40;11.80;;;10.75;;
12631;SDS011;6381;45.748;12.106;2023-08-20T08:22:12;11.80;;;10.75;;
12631;SDS011;6381;45.748;12.106;2023-08-20T08:24:42;11.95;;;10.77;;
12631;SDS011;6381;45.748;12.106;2023-08-20T08:27:12;11.50;;;10.48;;
12631;SDS011;6381;45.748;12.106;2023-08-20T08:29:41;11.48;;;10.45;;
12631;SDS011;6381;45.748;12.106;2023-08-20T08:32:11;12.00;;;10.90;;
12631;SDS011;6381;45.748;12.106;2023-08-20T08:34:42;11.52;;;10.63;;
12631;SDS011;6381;45.748;12.106;2023-08-20T08:37:11;11.95;;;10.98;;
12631;SDS011;6381;45.748;12.106;2023-08-20T08:39:42;12.65;;;11.48;;
12631;SDS011;6381;45.748;12.106;2023-08-20T08:42:12;12.32;;;11.13;;
12631;SDS011;6381;45.748;12.106;2023-08-20T08:44:46;12.32;;;11.32;;
12631;SDS011;6381;45.748;12.106;2023-08-20T08:47:21;12.18;;;11.18;;
12631;SDS011;6381;45.748;12.106;2023-08-20T08:49:52;13.38;;;12.13;;
12631;SDS011;6381;45.748;12.106;2023-08-20T08:52:24;12.70;;;11.45;;
12631;SDS011;6381;45.748;12.106;2023-08-20T08:54:58;13.05;;;11.85;;
12631;SDS011;6381;45.748;12.106;2023-08-20T08:57:29;13.27;;;12.00;;
12631;SDS011;6381;45.748;12.106;2023-08-20T09:00:01;12.85;;;11.82;;
12631;SDS011;6381;45.748;12.106;2023-08-20T09:02:31;12.77;;;11.68;;
12631;SDS011;6381;45.748;12.106;2023-08-20T09:05:02;13.50;;;12.32;;
12631;SDS011;6381;45.748;12.106;2023-08-20T09:07:33;12.90;;;11.63;;
12631;SDS011;6381;45.748;12.106;2023-08-20T09:10:03;13.20;;;11.93;;
12631;SDS011;6381;45.748;12.106;2023-08-20T09:12:36;13.07;;;11.88;;
12631;SDS011;6381;45.748;12.106;2023-08-20T09:15:09;12.93;;;11.80;;
12631;SDS011;6381;45.748;12.106;2023-08-20T09:17:40;12.27;;;11.25;;
12631;SDS011;6381;45.748;12.106;2023-08-20T09:20:12;13.15;;;11.75;;
12631;SDS011;6381;45.748;12.106;2023-08-20T09:22:46;12.25;;;10.95;;
12631;SDS011;6381;45.748;12.106;2023-08-20T09:25:18;13.52;;;12.18;;
12631;SDS011;6381;45.748;12.106;2023-08-20T09:27:48;12.93;;;11.60;;
12631;SDS011;6381;45.748;12.106;2023-08-20T09:30:17;12.30;;;11.20;;
12631;SDS011;6381;45.748;12.106;2023-08-20T09:32:53;12.68;;;11.43;;
12631;SDS011;6381;45.748;12.106;2023-08-20T09:35:33;13.25;;;12.15;;
12631;SDS011;6381;45.748;12.106;2023-08-20T09:38:03;13.30;;;12.25;;
12631;SDS011;6381;45.748;12.106;2023-08-20T09:40:34;12.88;;;11.80;;
12631;SDS011;6381;45.748;12.106;2023-08-20T09:43:08;12.88;;;11.73;;
12631;SDS011;6381;45.748;12.106;2023-08-20T09:45:45;12.82;;;11.60;;
12631;SDS011;6381;45.748;12.106;2023-08-20T09:48:18;13.18;;;11.88;;
12631;SDS011;6381;45.748;12.106;2023-08-20T09:50:51;13.18;;;11.88;;
12631;SDS011;6381;45.748;12.106;2023-08-20T09:53:26;13.30;;;12.10;;
12631;SDS011;6381;45.748;12.106;2023-08-20T09:56:09;12.45;;;11.43;;
12631;SDS011;6381;45.748;12.106;2023-08-20T09:58:43;13.13;;;11.90;;
12631;SDS011;6381;45.748;12.106;2023-08-20T10:01:13;13.38;;;12.00;;
12631;SDS011;6381;45.748;12.106;2023-08-20T10:03:42;12.43;;;11.43;;
12631;SDS011;6381;45.748;12.106;2023-08-20T10:06:14;11.70;;;10.70;;
12631;SDS011;6381;45.748;12.106;2023-08-20T10:08:43;12.40;;;11.30;;
12631;SDS011;6381;45.748;12.106;2023-08-20T10:11:14;12.98;;;11.77;;
12631;SDS011;6381;45.748;12.106;2023-08-20T10:13:44;12.52;;;11.40;;
12631;SDS011;6381;45.748;12.106;2023-08-20T10:16:13;12.05;;;11.05;;
12631;SDS011;6381;45.748;12.106;2023-08-20T10:18:48;12.55;;;11.38;;
12631;SDS011;6381;45.748;12.106;2023-08-20T10:21:19;12.32;;;11.13;;
12631;SDS011;6381;45.748;12.106;2023-08-20T10:23:52;11.93;;;10.95;;
12631;SDS011;6381;45.748;12.106;2023-08-20T10:26:22;12.43;;;11.13;;
12631;SDS011;6381;45.748;12.106;2023-08-20T10:28:52;12.65;;;11.60;;
12631;SDS011;6381;45.748;12.106;2023-08-20T10:32:01;13.25;;;11.50;;
12631;SDS011;6381;45.748;12.106;2023-08-20T10:34:33;12.13;;;11.13;;
12631;SDS011;6381;45.748;12.106;2023-08-20T10:37:10;13.20;;;11.93;;
12631;SDS011;6381;45.748;12.106;2023-08-20T10:39:41;12.07;;;11.00;;
12631;SDS011;6381;45.748;12.106;2023-08-20T10:42:22;12.63;;;11.27;;
12631;SDS011;6381;45.748;12.106;2023-08-20T10:44:56;11.95;;;10.88;;
12631;SDS011;6381;45.748;12.106;2023-08-20T10:47:35;12.30;;;11.25;;
12631;SDS011;6381;45.748;12.106;2023-08-20T10:50:07;17.02;;;12.10;;
12631;SDS011;6381;45.748;12.106;2023-08-20T10:52:41;11.93;;;10.95;;
12631;SDS011;6381;45.748;12.106;2023-08-20T10:55:16;11.60;;;10.60;;
12631;SDS011;6381;45.748;12.106;2023-08-20T10:57:54;12.57;;;11.10;;
12631;SDS011;6381;45.748;12.106;2023-08-20T11:00:24;12.10;;;10.93;;
12631;SDS011;6381;45.748;12.106;2023-08-20T11:02:55;12.07;;;11.07;;
12631;SDS011;6381;45.748;12.106;2023-08-20T11:05:28;11.90;;;10.90;;
12631;SDS011;6381;45.748;12.106;2023-08-20T11:08:01;11.55;;;10.50;;
12631;SDS011;6381;45.748;12.106;2023-08-20T11:10:35;11.40;;;10.50;;
12631;SDS011;6381;45.748;12.106;2023-08-20T11:13:05;11.77;;;10.70;;
12631;SDS011;6381;45.748;12.106;2023-08-20T11:15:35;11.55;;;10.52;;
12631;SDS011;6381;45.748;12.106;2023-08-20T11:18:06;10.80;;;9.95;;
12631;SDS011;6381;45.748;12.106;2023-08-20T11:20:35;12.23;;;11.25;;
12631;SDS011;6381;45.748;12.106;2023-08-20T11:23:07;11.45;;;10.55;;
12631;SDS011;6381;45.748;12.106;2023-08-20T11:25:40;11.05;;;10.20;;
12631;SDS011;6381;45.748;12.106;2023-08-20T11:28:10;11.52;;;10.43;;
12631;SDS011;6381;45.748;12.106;2023-08-20T11:30:39;11.27;;;10.00;;
12631;SDS011;6381;45.748;12.106;2023-08-20T11:33:08;10.98;;;10.07;;
12631;SDS011;6381;45.748;12.106;2023-08-20T11:35:38;11.38;;;10.38;;
12631;SDS011;6381;45.748;12.106;2023-08-20T11:38:11;11.57;;;10.60;;
12631;SDS011;6381;45.748;12.106;2023-08-20T11:40:44;11.50;;;10.40;;
12631;SDS011;6381;45.748;12.106;2023-08-20T11:43:13;12.88;;;11.68;;
12631;SDS011;6381;45.748;12.106;2023-08-20T11:45:44;11.98;;;10.93;;
12631;SDS011;6381;45.748;12.106;2023-08-20T11:48:19;11.57;;;10.57;;
12631;SDS011;6381;45.748;12.106;2023-08-20T11:50:50;11.55;;;10.50;;
12631;SDS011;6381;45.748;12.106;2023-08-20T11:53:24;11.18;;;10.07;;
12631;SDS011;6381;45.748;12.106;2023-08-20T11:55:53;11.52;;;10.43;;
12631;SDS011;6381;45.748;12.106;2023-08-20T11:58:22;11.80;;;10.60;;
12631;SDS011;6381;45.748;12.106;2023-08-20T12:00:51;11.27;;;10.23;;
12631;SDS011;6381;45.748;12.106;2023-08-20T12:03:21;10.90;;;9.82;;
12631;SDS011;6381;45.748;12.106;2023-08-20T12:05:50;11.07;;;10.10;;
12631;SDS011;6381;45.748;12.106;2023-08-20T12:08:19;11.77;;;10.55;;
12631;SDS011;6381;45.748;12.106;2023-08-20T12:10:50;10.95;;;10.05;;
12631;SDS011;6381;45.748;12.106;2023-08-20T12:13:20;11.75;;;10.85;;
12631;SDS011;6381;45.748;12.106;2023-08-20T12:15:49;11.10;;;9.77;;
12631;SDS011;6381;45.748;12.106;2023-08-20T12:18:19;11.02;;;10.07;;
12631;SDS011;6381;45.748;12.106;2023-08-20T12:20:49;11.10;;;10.05;;
12631;SDS011;6381;45.748;12.106;2023-08-20T12:23:18;11.10;;;10.10;;
12631;SDS011;6381;45.748;12.106;2023-08-20T12:25:50;10.63;;;9.52;;
12631;SDS011;6381;45.748;12.106;2023-08-20T12:28:20;10.68;;;9.77;;
12631;SDS011;6381;45.748;12.106;2023-08-20T12:30:49;13.02;;;9.90;;
12631;SDS011;6381;45.748;12.106;2023-08-20T12:33:19;10.80;;;9.80;;
12631;SDS011;6381;45.748;12.106;2023-08-20T12:35:49;10.40;;;9.40;;
12631;SDS011;6381;45.748;12.106;2023-08-20T12:38:20;10.30;;;9.35;;
12631;SDS011;6381;45.748;12.106;2023-08-20T12:40:50;10.95;;;9.82;;
12631;SDS011;6381;45.748;12.106;2023-08-20T12:43:20;9.60;;;8.75;;
12631;SDS011;6381;45.748;12.106;2023-08-20T12:45:49;10.20;;;9.20;;
12631;SDS011;6381;45.748;12.106;2023-08-20T12:48:21;9.75;;;8.75;;
12631;SDS011;6381;45.748;12.106;2023-08-20T12:50:51;9.10;;;8.25;;
12631;SDS011;6381;45.748;12.106;2023-08-20T12:53:20;10.90;;;9.80;;
12631;SDS011;6381;45.748;12.106;2023-08-20T12:55:51;10.02;;;9.00;;
12631;SDS011;6381;45.748;12.106;2023-08-20T12:58:20;10.00;;;9.13;;
12631;SDS011;6381;45.748;12.106;2023-08-20T13:00:50;10.40;;;9.32;;
12631;SDS011;6381;45.748;12.106;2023-08-20T13:03:20;10.45;;;9.45;;
12631;SDS011;6381;45.748;12.106;2023-08-20T13:05:50;10.77;;;9.68;;
12631;SDS011;6381;45.748;12.106;2023-08-20T13:08:20;11.45;;;9.93;;
12631;SDS011;6381;45.748;12.106;2023-08-20T13:10:52;9.82;;;9.02;;
12631;SDS011;6381;45.748;12.106;2023-08-20T13:13:24;10.85;;;9.85;;
12631;SDS011;6381;45.748;12.106;2023-08-20T13:15:54;10.50;;;9.60;;
12631;SDS011;6381;45.748;12.106;2023-08-20T13:18:26;10.18;;;9.25;;
12631;SDS011;6381;45.748;12.106;2023-08-20T13:20:56;11.20;;;10.10;;
12631;SDS011;6381;45.748;12.106;2023-08-20T13:23:26;10.18;;;9.25;;
12631;SDS011;6381;45.748;12.106;2023-08-20T13:25:57;10.35;;;8.82;;
12631;SDS011;6381;45.748;12.106;2023-08-20T13:28:28;8.90;;;8.15;;
12631;SDS011;6381;45.748;12.106;2023-08-20T13:30:59;10.02;;;9.05;;
12631;SDS011;6381;45.748;12.106;2023-08-20T13:33:29;9.02;;;8.13;;
12631;SDS011;6381;45.748;12.106;2023-08-20T13:35:58;10.48;;;8.27;;
12631;SDS011;6381;45.748;12.106;2023-08-20T13:38:28;11.40;;;8.70;;
12631;SDS011;6381;45.748;12.106;2023-08-20T13:40:58;9.30;;;8.45;;
12631;SDS011;6381;45.748;12.106;2023-08-20T13:43:28;9.68;;;8.68;;
12631;SDS011;6381;45.748;12.106;2023-08-20T13:45:57;9.18;;;8.38;;
12631;SDS011;6381;45.748;12.106;2023-08-20T13:48:27;9.07;;;8.20;;
12631;SDS011;6381;45.748;12.106;2023-08-20T13:50:56;8.45;;;7.65;;
12631;SDS011;6381;45.748;12.106;2023-08-20T13:53:26;9.15;;;8.32;;
12631;SDS011;6381;45.748;12.106;2023-08-20T13:55:55;9.05;;;8.02;;
12631;SDS011;6381;45.748;12.106;2023-08-20T13:58:25;9.23;;;8.32;;
12631;SDS011;6381;45.748;12.106;2023-08-20T14:00:55;9.40;;;8.27;;
12631;SDS011;6381;45.748;12.106;2023-08-20T14:03:24;8.80;;;8.10;;
12631;SDS011;6381;45.748;12.106;2023-08-20T14:05:54;9.00;;;8.10;;
12631;SDS011;6381;45.748;12.106;2023-08-20T14:08:23;10.07;;;8.57;;
12631;SDS011;6381;45.748;12.106;2023-08-20T14:10:52;9.32;;;8.45;;
12631;SDS011;6381;45.748;12.106;2023-08-20T14:13:21;9.00;;;8.30;;
12631;SDS011;6381;45.748;12.106;2023-08-20T14:15:52;9.60;;;7.82;;
12631;SDS011;6381;45.748;12.106;2023-08-20T14:18:22;8.73;;;7.70;;
12631;SDS011;6381;45.748;12.106;2023-08-20T14:20:51;8.05;;;7.38;;
12631;SDS011;6381;45.748;12.106;2023-08-20T14:23:21;9.70;;;7.78;;
12631;SDS011;6381;45.748;12.106;2023-08-20T14:25:50;9.48;;;8.57;;
12631;SDS011;6381;45.748;12.106;2023-08-20T14:28:22;8.77;;;7.88;;
12631;SDS011;6381;45.748;12.106;2023-08-20T14:30:53;9.35;;;8.55;;
12631;SDS011;6381;45.748;12.106;2023-08-20T14:33:23;8.63;;;7.93;;
12631;SDS011;6381;45.748;12.106;2023-08-20T14:35:52;9.80;;;7.95;;
12631;SDS011;6381;45.748;12.106;2023-08-20T14:38:23;8.23;;;7.43;;
12631;SDS011;6381;45.748;12.106;2023-08-20T14:40:52;8.48;;;7.68;;
12631;SDS011;6381;45.748;12.106;2023-08-20T14:43:21;8.55;;;7.75;;
12631;SDS011;6381;45.748;12.106;2023-08-20T14:45:51;8.75;;;7.88;;
12631;SDS011;6381;45.748;12.106;2023-08-20T14:48:22;8.50;;;7.70;;